Forside
METAR-TAF:

METAR-TAF

Lufthavne :

Cairo International Airport

Kairo, Egypten

Breddekreds: 30-08N, længdekreds: 031-24E, højde: 64 m

Aktuelle vejr

Denne rapport blev lavet for 17 minutter siden, kl. 02:30 UTC
Vind 9 kt fra nord
Temperatur 25°C
Fugtighed 79%
Tryk 1009 hPa
Sigt 10 km eller mere
ingen skyer under 1500m og ingen cumulonimbus

METAR: HECA 160230Z 35009KT CAVOK 25/21 Q1009 NOSIG

Tid: 04:47 (02:47 UTC)

Vejrudsigter

Denne rapport blev lavet for 3 timer og 47 minutter siden, kl. 23:00 UTC
Foreløbig gælder fra 16 på 00 UTC til 17 på 06 UTC
Vind 10 kt fra nord
Sigt 10 km eller mere
ingen skyer under 1500m og ingen cumulonimbus
Midlertidig
fra 16 på 01 UTC til 16 på 18 UTC
Vind 3 kt fra varierende retninger
Sigt: 6000 m
Spredte skyer i en højde af 2500 ft
Sandsynlighed 30% :
Midlertidig
fra 16 på 02 UTC til 16 på 06 UTC
Sigt: 3000 m
tåge/dis

TAF: HECA 152300Z 1600/1706 01010KT CAVOK TEMPO 1601/1618 VRB03KT 6000 SCT025 PROB30 TEMPO 1602/1606 3000 HZ

Vejrobservationer og prognoser fra mere end 4000 lufthavne (METAR og TAF).

De gule og røde prikker repræsenterer de meteorologiske stationer.

Flyt musen over at se navnet på stationen.

Så klik over at se vejr observationer og prognoser.

At skifte det kort: Klik på de grønne knapper med et sort kors for at zoome ind; på den grønne knap med en bindestreg for at zoome ud; eller på de grønne pile for tilstødende kort.


METAR-TAF: